.
WxDataArchive / Data Records for 2005-12-10
2005-12-09 December 2005 2005-12-11

Data Records for Saturday, 10 December 2005

Time	Temp	Chill	HIndex	Humid	Dewpt	 Wind 	HiWind	WindDir	Rain 	Barom 
-----	----	-----	------	-----	-----	------	------	-------	-----	----- 
00:00	18.4	12.4	18.4	84	14.4	4	10	248	0.00	30.198 
00:05	18.3	11.0	18.3	84	14.3	5	12	270	0.00	30.198 
00:10	18.3	12.3	18.3	84	14.3	4	11	248	0.00	30.198 
00:15	18.1	12.0	18.1	84	14.1	4	14	248	0.00	30.183 
00:20	18.0	11.9	18.0	85	14.3	4	14	248	0.00	30.183 
00:25	17.8	10.4	17.8	85	14.1	5	12	270	0.00	30.183 
00:30	17.8	11.7	17.8	85	14.1	4	13	248	0.00	30.173 
00:35	17.8	17.8	17.8	85	14.1	3	7	248	0.00	30.173 
00:40	17.8	11.7	17.8	85	14.1	4	12	248	0.00	30.173 
00:45	17.7	11.6	17.7	85	14.0	4	10	248	0.00	30.164 
00:50	17.7	11.6	17.7	85	14.0	4	12	248	0.00	30.164 
00:55	17.7	10.3	17.7	85	14.0	5	11	248	0.00	30.164 
01:00	17.7	11.6	17.7	85	14.0	4	11	248	0.00	30.165 
01:05	17.5	10.0	17.5	84	13.5	5	11	248	0.00	30.165 
01:10	17.5	10.0	17.5	84	13.5	5	17	248	0.00	30.165 
01:15	17.3	9.8	17.3	84	13.3	5	14	270	0.00	30.160 
01:20	17.2	11.0	17.2	84	13.2	4	10	248	0.00	30.160 
01:25	17.2	9.7	17.2	84	13.2	5	12	248	0.00	30.160 
01:30	17.0	10.7	17.0	84	13.0	4	10	270	0.00	30.152 
01:35	16.9	10.6	16.9	84	12.9	4	11	248	0.00	30.152 
01:40	16.9	16.9	16.9	85	13.2	3	6	248	0.00	30.152 
01:45	16.7	16.7	16.7	85	13.0	2	6	248	0.00	30.140 
01:50	16.5	16.5	16.5	85	12.8	2	6	248	0.00	30.140 
01:55	16.5	16.5	16.5	85	12.8	2	7	248	0.00	30.140 
02:00	16.4	10.1	16.4	85	12.7	4	9	248	0.00	30.137 
02:05	16.4	10.1	16.4	85	12.7	4	10	270	0.00	30.137 
02:10	16.2	9.8	16.2	85	12.5	4	12	248	0.00	30.137 
02:15	16.2	9.8	16.2	84	12.2	4	12	248	0.00	30.137 
02:20	16.1	9.7	16.1	85	12.4	4	12	248	0.00	30.137 
02:25	16.1	9.7	16.1	84	12.1	4	14	248	0.00	30.137 
02:30	15.9	15.9	15.9	84	11.9	3	10	248	0.00	30.138 
02:35	15.9	15.9	15.9	85	12.2	3	6	270	0.00	30.138 
02:40	15.9	9.5	15.9	84	11.9	4	11	248	0.00	30.138 
02:45	15.9	15.9	15.9	84	11.9	3	11	248	0.00	30.136 
02:50	15.7	15.7	15.7	84	11.7	3	7	248	0.00	30.136 
02:55	15.6	15.6	15.6	84	11.6	3	7	248	0.00	30.136 
03:00	15.4	8.9	15.4	84	11.4	4	10	248	0.00	30.136 
03:05	15.4	8.9	15.4	84	11.4	4	11	248	0.00	30.136 
03:10	15.4	8.9	15.4	85	11.7	4	10	248	0.00	30.136 
03:15	15.4	15.4	15.4	85	11.7	3	9	248	0.00	30.135 
03:20	15.4	15.4	15.4	85	11.7	3	8	248	0.00	30.135 
03:25	15.4	15.4	15.4	85	11.7	3	8	248	0.00	30.135 
03:30	15.4	15.4	15.4	85	11.7	3	9	248	0.00	30.124 
03:35	15.4	15.4	15.4	85	11.7	3	6	248	0.00	30.124 
03:40	15.4	15.4	15.4	85	11.7	2	4	248	0.00	30.124 
03:45	15.6	15.6	15.6	85	11.9	2	4	248	0.00	30.115 
03:50	15.6	15.6	15.6	85	11.9	2	5	248	0.00	30.115 
03:55	15.6	15.6	15.6	85	11.9	2	5	248	0.00	30.115 
04:00	15.6	15.6	15.6	85	11.9	1	4	248	0.00	30.105 
04:05	15.6	15.6	15.6	85	11.9	2	4	248	0.00	30.105 
04:10	15.6	15.6	15.6	85	11.9	2	5	248	0.00	30.105 
04:15	15.7	15.7	15.7	85	12.0	2	9	248	0.00	30.105 
04:20	15.7	9.2	15.7	83	11.5	4	11	248	0.00	30.105 
04:25	15.7	15.7	15.7	85	12.0	3	10	248	0.00	30.105 
04:30	15.7	15.7	15.7	85	12.0	2	6	248	0.00	30.090 
04:35	15.7	15.7	15.7	85	12.0	2	6	248	0.00	30.090 
04:40	15.7	15.7	15.7	85	12.0	3	9	248	0.00	30.090 
04:45	15.9	15.9	15.9	85	12.2	2	5	248	0.00	30.088 
04:50	15.9	15.9	15.9	85	12.2	3	5	248	0.00	30.088 
04:55	15.9	15.9	15.9	85	12.2	2	7	248	0.00	30.088 
05:00	15.9	15.9	15.9	85	12.2	3	9	248	0.00	30.077 
05:05	16.1	16.1	16.1	85	12.4	2	5	248	0.00	30.077 
05:10	16.1	16.1	16.1	85	12.4	2	4	248	0.00	30.077 
05:15	16.1	16.1	16.1	85	12.4	2	4	248	0.00	30.074 
05:20	16.1	16.1	16.1	85	12.4	2	6	248	0.00	30.074 
05:25	16.1	16.1	16.1	85	12.4	2	4	248	0.00	30.074 
05:30	16.1	16.1	16.1	84	12.1	3	7	248	0.00	30.061 
05:35	16.1	16.1	16.1	84	12.1	2	6	248	0.00	30.061 
05:40	16.1	16.1	16.1	84	12.1	3	10	248	0.00	30.061 
05:45	16.1	16.1	16.1	84	12.1	2	5	248	0.00	30.058 
05:50	16.1	16.1	16.1	84	12.1	2	5	248	0.00	30.058 
05:55	16.1	16.1	16.1	84	12.1	3	6	248	0.00	30.058 
06:00	16.2	16.2	16.2	84	12.2	3	9	248	0.00	30.057 
06:05	16.2	16.2	16.2	84	12.2	2	6	248	0.00	30.057 
06:10	16.2	16.2	16.2	84	12.2	2	5	248	0.00	30.057 
06:15	16.4	16.4	16.4	84	12.4	2	6	248	0.00	30.055 
06:20	16.4	16.4	16.4	84	12.4	2	4	248	0.00	30.055 
06:25	16.4	16.4	16.4	84	12.4	2	7	248	0.00	30.055 
06:30	16.4	16.4	16.4	84	12.4	3	7	248	0.00	30.052 
06:35	16.4	16.4	16.4	84	12.4	3	7	248	0.00	30.052 
06:40	16.5	16.5	16.5	84	12.5	3	7	248	0.00	30.052 
06:45	16.5	16.5	16.5	84	12.5	3	6	248	0.00	30.051 
06:50	16.5	10.2	16.5	84	12.5	4	10	248	0.00	30.051 
06:55	16.5	16.5	16.5	84	12.5	3	6	248	0.00	30.051 
07:00	16.5	16.5	16.5	84	12.5	3	6	248	0.00	30.044 
07:05	16.5	16.5	16.5	84	12.5	2	4	248	0.00	30.044 
07:10	16.5	16.5	16.5	84	12.5	2	6	248	0.00	30.044 
07:15	16.5	16.5	16.5	84	12.5	2	5	270	0.00	30.036 
07:20	16.5	16.5	16.5	84	12.5	3	7	248	0.00	30.036 
07:25	16.5	16.5	16.5	84	12.5	3	7	248	0.00	30.036 
07:30	16.7	16.7	16.7	84	12.7	3	6	248	0.00	30.032 
07:35	16.7	16.7	16.7	84	12.7	3	7	248	0.00	30.032 
07:40	16.7	16.7	16.7	84	12.7	3	6	248	0.00	30.032 
07:45	16.7	16.7	16.7	84	12.7	3	10	248	0.00	30.037 
07:50	16.7	16.7	16.7	84	12.7	3	6	248	0.00	30.037 
07:55	16.7	16.7	16.7	84	12.7	2	7	248	0.00	30.037 
08:00	16.7	16.7	16.7	84	12.7	2	7	248	0.00	30.010 
08:05	16.7	16.7	16.7	84	12.7	3	5	248	0.00	30.010 
08:10	16.9	16.9	16.9	84	12.9	3	6	248	0.00	30.010 
08:15	16.9	16.9	16.9	84	12.9	3	9	248	0.00	30.003 
08:20	16.9	16.9	16.9	84	12.9	2	6	248	0.00	30.003 
08:25	17.0	17.0	17.0	83	12.7	3	8	248	0.00	30.003 
08:30	17.0	17.0	17.0	83	12.7	2	5	248	0.00	29.992 
08:35	17.0	17.0	17.0	83	12.7	2	10	248	0.00	29.992 
08:40	17.0	17.0	17.0	83	12.7	2	6	248	0.00	29.992 
08:45	17.0	17.0	17.0	83	12.7	2	6	248	0.00	29.974 
08:50	17.0	17.0	17.0	83	12.7	2	7	112	0.00	29.974 
08:55	17.0	17.0	17.0	83	12.7	2	9	248	0.00	29.974 
09:00	17.0	17.0	17.0	83	12.7	2	6	90	0.00	29.960 
09:05	17.0	17.0	17.0	83	12.7	2	5	68	0.00	29.960 
09:10	17.0	17.0	17.0	83	12.7	2	6	225	0.00	29.960 
09:15	17.0	17.0	17.0	83	12.7	3	6	270	0.00	29.958 
09:20	17.2	17.2	17.2	83	12.9	3	10	248	0.00	29.958 
09:25	17.2	17.2	17.2	83	12.9	3	7	248	0.00	29.958 
09:30	17.2	17.2	17.2	83	12.9	3	11	248	0.00	29.961 
09:35	17.3	17.3	17.3	83	13.0	2	9	248	0.00	29.961 
09:40	17.3	17.3	17.3	83	13.0	3	7	248	0.00	29.961 
09:45	17.5	17.5	17.5	83	13.2	3	9	248	0.00	29.964 
09:50	17.7	17.7	17.7	83	13.4	3	6	248	0.00	29.964 
09:55	17.8	17.8	17.8	82	13.3	3	7	225	0.00	29.964 
10:00	18.0	18.0	18.0	82	13.5	3	7	248	0.00	29.974 
10:05	18.0	11.9	18.0	81	13.2	4	11	248	0.00	29.974 
10:10	18.1	18.1	18.1	82	13.5	3	6	270	0.00	29.974 
10:15	18.3	18.3	18.3	82	13.7	3	6	248	0.00	29.963 
10:20	18.4	12.4	18.4	81	13.6	4	9	248	0.00	29.963 
10:25	18.3	18.3	18.3	81	13.5	3	7	248	0.00	29.963 
10:30	18.4	18.4	18.4	81	13.6	2	11	248	0.00	29.941 
10:35	18.6	18.6	18.6	81	13.8	2	5	248	0.00	29.941 
10:40	18.6	18.6	18.6	82	14.0	2	6	248	0.00	29.941 
10:45	18.8	18.8	18.8	82	14.2	2	9	248	0.00	29.920 
10:50	18.9	18.9	18.9	81	14.1	2	7	248	0.00	29.920 
10:55	19.1	19.1	19.1	81	14.2	2	7	248	0.00	29.920 
11:00	19.1	19.1	19.1	81	14.2	2	5	248	0.00	29.899 
11:05	19.2	19.2	19.2	81	14.3	2	4	248	0.00	29.899 
11:10	19.4	19.4	19.4	81	14.5	2	7	248	0.00	29.899 
11:15	19.5	19.5	19.5	81	14.6	2	5	248	0.00	29.884 
11:20	19.7	19.7	19.7	81	14.8	2	5	248	0.00	29.884 
11:25	19.9	19.9	19.9	81	15.0	2	7	248	0.00	29.884 
11:30	19.9	14.1	19.9	80	14.7	4	9	248	0.00	29.881 
11:35	19.9	12.9	19.9	80	14.7	5	10	248	0.00	29.881 
11:40	20.0	13.0	20.0	80	14.8	5	12	248	0.00	29.881 
11:45	20.2	20.2	20.2	81	15.3	3	7	248	0.00	29.865 
11:50	20.3	14.6	20.3	80	15.1	4	9	248	0.00	29.865 
11:55	20.5	14.8	20.5	79	15.0	4	10	248	0.00	29.865 
12:00	20.8	15.1	20.8	79	15.3	4	15	248	0.00	29.849 
12:05	21.1	21.1	21.1	80	15.9	2	6	248	0.00	29.849 
12:10	21.4	21.4	21.4	79	15.9	1	5	248	0.00	29.849 
12:15	21.6	21.6	21.6	79	16.1	2	6	248	0.00	29.816 
12:20	21.6	16.1	21.6	78	15.8	4	11	248	0.00	29.816 
12:25	21.8	15.1	21.8	78	16.0	5	12	248	0.00	29.816 
12:30	21.9	16.4	21.9	77	15.8	4	12	248	0.00	29.816 
12:35	21.9	14.2	21.9	77	15.8	6	14	248	0.00	29.816 
12:40	22.1	15.4	22.1	77	16.0	5	11	248	0.00	29.816 
12:45	22.2	16.8	22.2	77	16.1	4	10	248	0.00	29.811 
12:50	22.4	22.4	22.4	77	16.3	3	9	248	0.00	29.811 
12:55	22.4	17.0	22.4	77	16.3	4	11	248	0.00	29.811 
13:00	22.7	22.7	22.7	77	16.6	3	11	248	0.00	29.800 
13:05	22.7	17.3	22.7	76	16.3	4	8	248	0.00	29.800 
13:10	22.7	22.7	22.7	76	16.3	3	10	248	0.00	29.800 
13:15	22.7	22.7	22.7	77	16.6	2	6	248	0.00	29.775 
13:20	22.5	22.5	22.5	77	16.4	3	9	248	0.00	29.775 
13:25	22.5	22.5	22.5	76	16.1	3	12	248	0.00	29.775 
13:30	22.7	22.7	22.7	77	16.6	3	8	225	0.00	29.770 
13:35	22.9	22.9	22.9	76	16.5	3	7	248	0.00	29.770 
13:40	23.0	23.0	23.0	76	16.6	3	13	248	0.00	29.770 
13:45	23.2	17.9	23.2	75	16.5	4	9	270	0.00	29.769 
13:50	23.2	17.9	23.2	74	16.2	4	10	248	0.00	29.769 
13:55	23.5	23.5	23.5	75	16.8	3	6	248	0.00	29.769 
14:00	23.6	18.4	23.6	75	16.9	4	10	248	0.00	29.766 
14:05	23.9	17.6	23.9	73	16.5	5	12	270	0.00	29.766 
14:10	23.8	18.6	23.8	73	16.4	4	10	248	0.00	29.766 
14:15	23.8	23.8	23.8	74	16.7	3	11	248	0.00	29.757 
14:20	24.2	24.2	24.2	73	16.8	3	9	270	0.00	29.757 
14:25	24.4	24.4	24.4	73	17.0	3	7	248	0.00	29.757 
14:30	24.2	19.1	24.2	72	16.5	4	11	248	0.00	29.737 
14:35	24.1	19.0	24.1	73	16.7	4	11	248	0.00	29.737 
14:40	24.1	24.1	24.1	73	16.7	3	7	248	0.00	29.734 
14:45	24.2	24.2	24.2	73	16.8	3	9	248	0.00	29.735 
14:50	24.4	24.4	24.4	73	17.0	3	6	248	0.00	29.735 
14:55	24.7	24.7	24.7	73	17.3	2	7	248	0.00	29.735 
15:00	24.4	19.3	24.4	71	16.4	4	10	248	0.00	29.721 
15:05	24.2	19.1	24.2	72	16.5	4	12	248	0.00	29.721 
15:10	24.2	24.2	24.2	72	16.5	2	7	248	0.00	29.721 
15:15	24.2	24.2	24.2	73	16.8	2	5	270	0.00	29.710 
15:20	24.5	24.5	24.5	73	17.1	3	7	248	0.00	29.710 
15:25	24.5	24.5	24.5	72	16.8	3	7	248	0.00	29.710 
15:30	24.5	19.4	24.5	71	16.5	4	14	248	0.00	29.706 
15:35	24.5	19.4	24.5	71	16.5	4	10	248	0.00	29.706 
15:40	24.5	19.4	24.5	70	16.1	4	10	270	0.00	29.706 
15:45	24.5	24.5	24.5	72	16.8	3	7	248	0.00	29.709 
15:50	24.5	19.4	24.5	71	16.5	4	11	248	0.00	29.709 
15:55	24.5	18.3	24.5	71	16.5	5	13	248	0.00	29.709 
16:00	24.4	17.2	24.4	72	16.7	6	14	248	0.00	29.715 
16:05	24.2	19.1	24.2	72	16.5	4	11	248	0.00	29.715 
16:10	24.1	24.1	24.1	72	16.4	3	7	248	0.00	29.715 
16:15	23.9	23.9	23.9	73	16.5	3	8	248	0.00	29.707 
16:20	23.8	18.6	23.8	73	16.4	4	9	248	0.00	29.707 
16:25	23.8	23.8	23.8	73	16.4	2	6	248	0.00	29.707 
16:30	23.8	23.8	23.8	73	16.4	3	6	248	0.00	29.704 
16:35	23.8	23.8	23.8	74	16.7	2	7	248	0.00	29.704 
16:40	23.6	23.6	23.6	74	16.6	2	6	248	0.00	29.704 
16:45	23.5	23.5	23.5	74	16.5	2	6	270	0.00	29.689 
16:50	23.3	23.3	23.3	74	16.3	2	5	90	0.00	29.689 
16:55	23.3	23.3	23.3	75	16.6	1	4	68	0.00	29.689 
17:00	23.3	23.3	23.3	75	16.6	1	4	112	0.00	29.684 
17:05	23.3	23.3	23.3	75	16.6	1	6	248	0.00	29.684 
17:10	23.2	23.2	23.2	74	16.2	1	4	248	0.00	29.684 
17:15	23.0	23.0	23.0	74	16.0	1	4	270	0.00	29.682 
17:20	22.9	22.9	22.9	75	16.2	1	7	112	0.00	29.682 
17:25	22.5	22.5	22.5	76	16.1	1	3	248	0.00	29.682 
17:30	22.4	22.4	22.4	76	16.0	1	3	248	0.00	29.676 
17:35	22.4	22.4	22.4	76	16.0	1	7	225	0.00	29.676 
17:40	22.4	22.4	22.4	75	15.7	2	5	248	0.00	29.676 
17:45	22.4	22.4	22.4	75	15.7	1	5	248	0.00	29.675 
17:50	22.5	22.5	22.5	76	16.1	1	4	248	0.00	29.675 
17:55	22.5	22.5	22.5	76	16.1	1	3	270	0.00	29.675 
18:00	22.7	22.7	22.7	75	16.0	1	3	270	0.00	29.673 
18:05	22.9	22.9	22.9	75	16.2	2	5	248	0.00	29.673 
18:10	23.0	23.0	23.0	75	16.3	2	5	248	0.00	29.673 
18:15	23.0	23.0	23.0	76	16.6	2	6	248	0.00	29.667 
18:20	23.2	23.2	23.2	75	16.5	1	5	270	0.00	29.667 
18:25	23.2	23.2	23.2	74	16.2	2	7	248	0.00	29.667 
18:30	23.3	23.3	23.3	74	16.3	2	6	248	0.00	29.665 
18:35	23.5	23.5	23.5	74	16.5	2	6	248	0.00	29.665 
18:40	23.8	18.6	23.8	73	16.4	4	9	248	0.00	29.665 
18:45	24.1	24.1	24.1	73	16.7	3	9	270	0.00	29.677 
18:50	24.2	19.1	24.2	72	16.5	4	11	270	0.00	29.677 
18:55	24.2	24.2	24.2	72	16.5	3	10	248	0.00	29.677 
19:00	24.4	19.3	24.4	72	16.7	4	9	248	0.00	29.673 
19:05	24.4	18.1	24.4	72	16.7	5	11	270	0.00	29.673 
19:10	24.4	18.1	24.4	72	16.7	5	12	248	0.00	29.673 
19:15	24.4	19.3	24.4	72	16.7	4	15	248	0.00	29.670 
19:20	24.4	19.3	24.4	72	16.7	4	9	248	0.00	29.670 
19:25	24.5	19.4	24.5	72	16.8	4	10	248	0.00	29.670 
19:30	24.5	24.5	24.5	73	17.1	3	9	248	0.00	29.657 
19:35	24.5	24.5	24.5	73	17.1	3	8	248	0.00	29.657 
19:40	24.5	19.4	24.5	73	17.1	4	11	248	0.00	29.657 
19:45	24.7	24.7	24.7	73	17.3	3	8	248	0.00	29.653 
19:50	24.7	24.7	24.7	73	17.3	3	12	248	0.00	29.653 
19:55	24.8	19.8	24.8	73	17.4	4	7	248	0.00	29.653 
20:00	24.8	19.8	24.8	73	17.4	4	9	248	0.00	29.650 
20:05	25.0	25.0	25.0	73	17.6	3	11	248	0.00	29.650 
20:10	25.1	20.1	25.1	72	17.4	4	8	248	0.00	29.650 
20:15	25.3	19.2	25.3	72	17.6	5	14	270	0.00	29.642 
20:20	25.6	20.7	25.6	74	18.5	4	11	248	0.00	29.642 
20:25	25.4	16.8	25.4	77	19.2	8	19	270	0.00	29.642 
20:30	25.0	20.0	25.0	81	20.0	4	7	270	0.00	29.640 
20:35	24.8	19.8	24.8	80	19.5	4	11	248	0.00	29.640 
20:40	24.8	19.8	24.8	78	18.9	4	12	270	0.00	29.640 
20:45	25.0	18.9	25.0	78	19.1	5	12	248	0.00	29.633 
20:50	25.0	20.0	25.0	78	19.1	4	11	248	0.00	29.633 
20:55	24.8	17.7	24.8	79	19.2	6	11	248	0.00	29.633 
21:00	24.8	17.7	24.8	80	19.5	6	13	248	0.00	29.626 
21:05	24.7	19.6	24.7	81	19.7	4	9	248	0.00	29.626 
21:10	24.7	18.5	24.7	81	19.7	5	12	270	0.00	29.626 
21:15	24.5	17.3	24.5	83	20.1	6	13	248	0.00	29.623 
21:20	24.4	19.3	24.4	84	20.3	4	10	248	0.00	29.623 
21:25	24.4	18.1	24.4	84	20.3	5	10	248	0.00	29.623 
21:30	24.4	17.2	24.4	84	20.3	6	16	248	0.00	29.618 
21:35	24.5	18.3	24.5	84	20.4	5	13	248	0.00	29.618 
21:40	24.5	19.4	24.5	84	20.4	4	10	248	0.00	29.618 
21:45	24.7	18.5	24.7	84	20.6	5	18	248	0.00	29.612 
21:50	24.7	19.6	24.7	84	20.6	4	10	270	0.00	29.612 
21:55	24.7	18.5	24.7	84	20.6	5	13	248	0.00	29.612 
22:00	24.8	19.8	24.8	84	20.7	4	11	270	0.00	29.611 
22:05	25.0	18.9	25.0	84	20.9	5	11	248	0.00	29.611 
22:10	25.1	19.0	25.1	84	21.0	5	14	270	0.00	29.611 
22:15	25.3	20.3	25.3	84	21.2	4	12	248	0.00	29.606 
22:20	25.4	19.3	25.4	83	21.0	5	12	248	0.00	29.606 
22:25	25.6	18.6	25.6	83	21.2	6	13	248	0.00	29.606 
22:30	25.6	18.6	25.6	83	21.2	6	12	248	0.00	29.602 
22:35	25.7	18.7	25.7	83	21.3	6	13	248	0.00	29.602 
22:40	25.8	19.8	25.8	83	21.4	5	14	248	0.00	29.602 
22:45	25.8	20.9	25.8	83	21.4	4	10	248	0.00	29.601 
22:50	26.0	20.0	26.0	82	21.3	5	11	248	0.00	29.601 
22:55	26.1	20.1	26.1	82	21.4	5	14	270	0.00	29.601 
23:00	26.3	19.4	26.3	81	21.3	6	13	248	0.00	29.596 
23:05	26.4	20.5	26.4	81	21.4	5	11	248	0.00	29.596 
23:10	26.6	20.7	26.6	81	21.6	5	11	248	0.00	29.596 
23:15	26.7	20.9	26.7	81	21.7	5	12	270	0.00	29.587 
23:20	26.7	20.9	26.7	81	21.7	5	10	270	0.00	29.587 
23:25	27.0	20.3	27.0	81	22.0	6	13	248	0.00	29.587 
23:30	27.0	19.5	27.0	81	22.0	7	17	270	0.00	29.585 
23:35	27.2	20.5	27.2	81	22.2	6	19	248	0.00	29.585 
23:40	27.2	21.4	27.2	81	22.2	5	14	248	0.00	29.585 
23:45	27.2	21.4	27.2	81	22.2	5	16	270	0.00	29.578 
23:50	27.3	21.6	27.3	81	22.3	5	12	248	0.00	29.578 
23:55	27.3	22.6	27.3	82	22.5	4	10	248	0.00	29.578 

CoCoRaHS
IN-AL-39
A2 Web Hosting
Creative Commons License
GoDaddy
Look for:

loaded 2017-12-13 09:36:42 • last modified 2010-11-18 10:43:29
Privacy PolicyDisclaimer
• wx.awcolley.com is powered by PmWiki v.2002016 •
• all content (unless otherwise noted) © 2017 A W Colley